createdAt,value
2017-09-20T00:01:41.935Z,14.77
2017-09-20T00:04:10.227Z,14.00
2017-09-20T00:06:38.483Z,15.18
2017-09-20T00:09:06.745Z,13.55
2017-09-20T00:11:34.242Z,14.27
2017-09-20T00:14:01.727Z,13.25
2017-09-20T00:16:29.229Z,13.90
2017-09-20T00:18:56.716Z,13.68
2017-09-20T00:21:24.228Z,14.00
2017-09-20T00:23:51.719Z,11.80
2017-09-20T00:26:19.990Z,13.48
2017-09-20T00:28:48.240Z,13.50
2017-09-20T00:31:15.764Z,11.77
2017-09-20T00:33:43.249Z,12.20
2017-09-20T00:36:10.747Z,14.20
2017-09-20T00:38:38.997Z,12.82
2017-09-20T00:41:07.351Z,15.95
2017-09-20T00:43:34.842Z,14.32
2017-09-20T00:46:03.124Z,14.52
2017-09-20T00:48:31.372Z,13.05
2017-09-20T00:50:58.860Z,14.48
2017-09-20T00:53:26.361Z,14.40
2017-09-20T00:55:53.849Z,15.23
2017-09-20T00:58:21.339Z,15.52
2017-09-20T01:00:48.857Z,20.70
2017-09-20T01:03:16.352Z,16.85
2017-09-20T01:05:43.855Z,16.05
2017-09-20T01:08:11.368Z,14.40
2017-09-20T01:10:38.863Z,15.05
2017-09-20T01:13:06.359Z,14.50
2017-09-20T01:15:33.840Z,14.55
2017-09-20T01:18:02.157Z,16.98
2017-09-20T01:20:41.507Z,16.05
2017-09-20T01:23:19.973Z,18.48
2017-09-20T01:25:47.467Z,16.98
2017-09-20T01:28:14.967Z,16.98
2017-09-20T01:30:43.212Z,19.62
2017-09-20T01:33:10.720Z,25.00
2017-09-20T01:35:38.221Z,21.95
2017-09-20T01:38:05.702Z,16.62
2017-09-20T01:40:33.203Z,19.83
2017-09-20T01:43:00.679Z,20.88
2017-09-20T01:45:28.193Z,18.83
2017-09-20T01:47:56.443Z,14.32
2017-09-20T01:50:23.943Z,20.23
2017-09-20T01:52:51.427Z,20.20
2017-09-20T01:55:18.931Z,18.12
2017-09-20T01:57:46.415Z,17.05
2017-09-20T02:00:13.903Z,19.42
2017-09-20T02:02:41.383Z,16.85
2017-09-20T02:05:08.895Z,16.73
2017-09-20T02:07:36.387Z,15.82
2017-09-20T02:10:04.653Z,24.02
2017-09-20T02:12:32.153Z,17.65
2017-09-20T02:14:59.635Z,19.45
2017-09-20T02:17:27.127Z,16.65
2017-09-20T02:19:54.616Z,14.02
2017-09-20T02:22:22.136Z,15.48
2017-09-20T02:24:49.616Z,13.60
2017-09-20T02:27:17.105Z,13.57
2017-09-20T02:29:45.357Z,14.87
2017-09-20T02:32:12.852Z,13.75
2017-09-20T02:34:41.123Z,16.40
2017-09-20T02:37:09.393Z,14.23
2017-09-20T02:39:36.876Z,12.52
2017-09-20T02:42:04.363Z,16.10
2017-09-20T02:44:32.617Z,13.80
2017-09-20T02:47:00.113Z,12.07
2017-09-20T02:49:27.602Z,10.82
2017-09-20T02:51:55.859Z,11.82
2017-09-20T02:54:23.348Z,12.02
2017-09-20T02:56:50.860Z,11.77
2017-09-20T02:59:18.348Z,13.25
2017-09-20T03:01:46.607Z,16.25
2017-09-20T03:04:14.163Z,12.95
2017-09-20T03:06:41.647Z,13.93
2017-09-20T03:09:09.911Z,12.98
2017-09-20T03:11:38.175Z,11.50
2017-09-20T03:14:05.668Z,14.65
2017-09-20T03:16:33.153Z,13.98
2017-09-20T03:19:00.662Z,12.43
2017-09-20T03:21:28.168Z,13.15
2017-09-20T03:23:55.676Z,14.13
2017-09-20T03:26:23.940Z,12.88
2017-09-20T03:28:51.462Z,17.60
2017-09-20T03:31:18.960Z,12.45
2017-09-20T03:33:46.468Z,13.40
2017-09-20T03:36:13.976Z,13.93
2017-09-20T03:38:41.488Z,11.52
2017-09-20T03:41:08.991Z,17.90
2017-09-20T03:43:36.481Z,14.60
2017-09-20T03:46:04.002Z,14.82
2017-09-20T03:48:31.484Z,12.02
2017-09-20T03:50:59.000Z,11.70
2017-09-20T03:53:26.492Z,16.75
2017-09-20T03:55:54.765Z,12.43
2017-09-20T03:58:22.268Z,11.15
2017-09-20T04:00:49.830Z,10.60
2017-09-20T04:03:17.320Z,12.48
2017-09-20T04:05:44.821Z,11.50
2017-09-20T04:08:12.316Z,11.73
2017-09-20T04:10:39.820Z,9.38
2017-09-20T04:13:08.071Z,11.50
2017-09-20T04:15:35.558Z,8.90
2017-09-20T04:18:03.829Z,8.85
2017-09-20T04:20:31.324Z,11.48
2017-09-20T04:22:58.845Z,8.80
2017-09-20T04:25:26.339Z,7.32
2017-09-20T04:27:53.846Z,8.85
2017-09-20T04:30:22.119Z,9.07
2017-09-20T04:32:49.647Z,9.25
2017-09-20T04:35:17.145Z,7.62
2017-09-20T04:37:45.425Z,6.50
2017-09-20T04:40:13.683Z,6.35
2017-09-20T04:42:41.205Z,7.40
2017-09-20T04:45:08.737Z,7.85
2017-09-20T04:47:36.243Z,6.40
2017-09-20T04:50:03.730Z,5.45
2017-09-20T04:52:31.246Z,6.35
2017-09-20T04:54:58.767Z,6.00
2017-09-20T04:57:26.258Z,5.78
2017-09-20T04:59:53.760Z,5.00
2017-09-20T05:02:22.048Z,5.43
2017-09-20T05:04:49.599Z,6.68
2017-09-20T05:07:17.872Z,6.07
2017-09-20T05:09:45.427Z,7.18
2017-09-20T05:12:13.703Z,4.95
2017-09-20T05:14:41.992Z,5.75
2017-09-20T05:17:09.511Z,9.95
2017-09-20T05:19:37.015Z,4.72
2017-09-20T05:22:04.506Z,6.70
2017-09-20T05:24:32.019Z,6.30
2017-09-20T05:26:59.539Z,4.57
2017-09-20T05:29:27.118Z,7.00
2017-09-20T05:31:54.632Z,10.13
2017-09-20T05:34:22.132Z,6.87
2017-09-20T05:36:49.646Z,10.10
2017-09-20T05:39:17.155Z,6.78
2017-09-20T05:41:44.670Z,8.93
2017-09-20T05:44:12.152Z,7.10
2017-09-20T05:46:39.652Z,7.45
2017-09-20T05:49:07.142Z,7.70
2017-09-20T05:51:34.680Z,8.98
2017-09-20T05:54:05.004Z,7.62
2017-09-20T05:56:32.808Z,11.50
2017-09-20T05:59:00.318Z,9.13
2017-09-20T06:01:27.874Z,9.88
2017-09-20T06:03:55.358Z,8.85
2017-09-20T06:06:22.887Z,10.18
2017-09-20T06:08:50.384Z,8.85
2017-09-20T06:11:17.898Z,9.15
2017-09-20T06:13:45.398Z,10.82
2017-09-20T06:16:12.913Z,10.38
2017-09-20T06:18:40.435Z,10.75
2017-09-20T06:21:07.944Z,12.25
2017-09-20T06:23:35.460Z,8.00
2017-09-20T06:26:02.949Z,11.93
2017-09-20T06:28:31.266Z,8.88
2017-09-20T06:30:58.785Z,7.85
2017-09-20T06:33:26.309Z,7.05
2017-09-20T06:35:53.819Z,6.95
2017-09-20T06:38:21.329Z,6.90
2017-09-20T06:40:48.833Z,5.62
2017-09-20T06:43:16.336Z,5.70
2017-09-20T06:45:43.839Z,5.37
2017-09-20T06:48:11.369Z,6.70
2017-09-20T06:50:38.865Z,6.90
2017-09-20T06:53:06.398Z,5.65
2017-09-20T06:55:33.895Z,6.45
2017-09-20T06:58:01.449Z,7.68
2017-09-20T07:00:29.020Z,5.57
2017-09-20T07:02:56.524Z,6.82
2017-09-20T07:05:24.790Z,11.20
2017-09-20T07:07:53.110Z,7.85
2017-09-20T07:10:20.624Z,6.37
2017-09-20T07:12:48.119Z,5.55
2017-09-20T07:15:15.619Z,7.37
2017-09-20T07:17:43.096Z,8.95
2017-09-20T07:20:11.375Z,6.57
2017-09-20T07:22:39.656Z,5.90
2017-09-20T07:25:07.152Z,6.32
2017-09-20T07:27:34.627Z,5.20
2017-09-20T07:30:02.171Z,6.12
2017-09-20T07:32:29.668Z,8.90
2017-09-20T07:34:57.167Z,5.78
2017-09-20T07:37:24.698Z,4.85
2017-09-20T07:39:52.195Z,4.60
2017-09-20T07:42:19.688Z,10.13
2017-09-20T07:44:47.189Z,4.10
2017-09-20T07:47:14.691Z,9.30
2017-09-20T07:49:42.183Z,4.87
2017-09-20T07:52:10.459Z,4.70
2017-09-20T07:54:37.935Z,5.85
2017-09-20T07:57:05.441Z,5.18
2017-09-20T07:59:32.935Z,5.50
2017-09-20T08:02:00.447Z,6.00
2017-09-20T08:04:27.979Z,11.23
2017-09-20T08:06:55.475Z,5.57
2017-09-20T08:09:22.968Z,5.12
2017-09-20T08:11:50.489Z,5.50
2017-09-20T08:14:17.963Z,4.85
2017-09-20T08:16:45.469Z,5.32
2017-09-20T08:19:12.958Z,6.43
2017-09-20T08:21:40.444Z,5.35
2017-09-20T08:24:07.948Z,3.55
2017-09-20T08:26:35.445Z,6.10
2017-09-20T08:29:02.944Z,2.92
2017-09-20T08:31:31.200Z,3.95
2017-09-20T08:33:58.715Z,4.47
2017-09-20T08:36:26.296Z,9.55
2017-09-20T08:38:53.816Z,3.40
2017-09-20T08:41:21.304Z,5.35
2017-09-20T08:43:48.811Z,3.83
2017-09-20T08:46:17.066Z,2.87
2017-09-20T08:48:44.591Z,3.05
2017-09-20T08:51:12.080Z,2.90
2017-09-20T08:53:39.571Z,3.92
2017-09-20T08:56:07.082Z,2.28
2017-09-20T08:58:34.594Z,2.87
2017-09-20T09:01:02.100Z,3.08
2017-09-20T09:03:29.589Z,3.10
2017-09-20T09:05:57.874Z,2.50
2017-09-20T09:08:25.373Z,2.70
2017-09-20T09:10:52.929Z,6.18
2017-09-20T09:13:20.420Z,2.72
2017-09-20T09:15:47.936Z,3.35
2017-09-20T09:18:15.424Z,2.90
2017-09-20T09:20:42.944Z,5.03
2017-09-20T09:23:10.461Z,3.15
2017-09-20T09:25:38.062Z,3.45
2017-09-20T09:28:05.544Z,5.95
2017-09-20T09:30:33.019Z,3.55
2017-09-20T09:33:00.570Z,4.50
2017-09-20T09:35:28.217Z,4.22
2017-09-20T09:37:55.760Z,3.62
2017-09-20T09:40:23.332Z,5.22
2017-09-20T09:42:50.865Z,4.20
2017-09-20T09:45:18.372Z,2.78
2017-09-20T09:47:45.870Z,3.37
2017-09-20T09:50:13.417Z,5.03
2017-09-20T09:52:40.933Z,5.80
2017-09-20T09:55:09.513Z,4.20
2017-09-20T09:57:37.038Z,4.62
2017-09-20T10:00:04.577Z,3.75
2017-09-20T10:02:32.120Z,3.12
2017-09-20T10:04:59.621Z,3.40
2017-09-20T10:07:27.136Z,3.45
2017-09-20T10:09:54.669Z,3.40
2017-09-20T10:12:22.276Z,5.40
2017-09-20T10:14:49.827Z,4.75
2017-09-20T10:17:18.119Z,4.55
2017-09-20T10:19:45.671Z,4.03
2017-09-20T10:22:13.191Z,3.50
2017-09-20T10:24:40.700Z,3.92
2017-09-20T10:27:08.233Z,3.33
2017-09-20T10:29:35.775Z,5.57
2017-09-20T10:32:03.318Z,5.70
2017-09-20T10:34:30.868Z,3.40
2017-09-20T10:36:58.446Z,5.90
2017-09-20T10:39:25.976Z,4.40
2017-09-20T10:41:53.551Z,4.05
2017-09-20T10:44:21.090Z,4.00
2017-09-20T10:46:48.698Z,3.87
2017-09-20T10:49:17.628Z,6.60
2017-09-20T10:51:45.136Z,3.37
2017-09-20T10:54:12.637Z,4.00
2017-09-20T10:56:40.188Z,5.05
2017-09-20T10:59:08.467Z,5.85
2017-09-20T11:04:09.800Z,2.80
2017-09-20T11:06:37.296Z,2.78
2017-09-20T11:09:04.862Z,3.55
2017-09-20T11:11:32.378Z,3.30
2017-09-20T11:14:00.661Z,3.12
2017-09-20T11:16:28.232Z,4.75
2017-09-20T11:18:55.735Z,3.30
2017-09-20T11:21:23.658Z,5.45
2017-09-20T11:23:51.188Z,3.53
2017-09-20T11:26:18.724Z,3.53
2017-09-20T11:28:46.222Z,4.03
2017-09-20T11:31:14.581Z,3.58
2017-09-20T11:33:42.111Z,4.85
2017-09-20T11:36:09.620Z,4.12
2017-09-20T11:38:37.911Z,3.85
2017-09-20T11:41:10.461Z,5.20
2017-09-20T11:43:38.048Z,3.67
2017-09-20T11:46:05.565Z,6.68
2017-09-20T11:48:33.096Z,3.45
2017-09-20T11:51:00.590Z,4.30
2017-09-20T11:53:28.179Z,3.65
2017-09-20T11:55:57.482Z,4.68
2017-09-20T11:58:25.094Z,3.90
2017-09-20T12:00:52.637Z,3.35
2017-09-20T12:03:20.164Z,4.28
2017-09-20T12:05:47.704Z,4.47
2017-09-20T12:08:15.363Z,3.67
2017-09-20T12:10:43.639Z,3.85
2017-09-20T12:13:11.222Z,3.35
2017-09-20T12:15:38.760Z,4.53
2017-09-20T12:18:06.321Z,3.30
2017-09-20T12:20:33.884Z,6.72
2017-09-20T12:23:01.423Z,3.65
2017-09-20T12:25:28.917Z,3.10
2017-09-20T12:27:56.544Z,3.35
2017-09-20T12:30:24.070Z,3.42
2017-09-20T12:32:51.681Z,3.67
2017-09-20T12:35:19.188Z,2.95
2017-09-20T12:37:46.718Z,4.07
2017-09-20T12:40:14.278Z,3.53
2017-09-20T12:42:41.845Z,3.25
2017-09-20T12:45:09.428Z,4.62
2017-09-20T12:47:36.912Z,3.72
2017-09-20T12:50:04.452Z,3.90
2017-09-20T12:52:31.956Z,3.37
2017-09-20T12:54:59.489Z,3.50
2017-09-20T12:57:27.781Z,5.57
2017-09-20T12:59:56.082Z,3.45
2017-09-20T13:02:23.633Z,3.45
2017-09-20T13:04:51.148Z,3.33
2017-09-20T13:07:18.692Z,3.12
2017-09-20T13:09:46.208Z,4.62
2017-09-20T13:12:13.729Z,3.33
2017-09-20T13:14:41.253Z,5.15
2017-09-20T13:17:08.776Z,5.22
2017-09-20T13:19:36.270Z,3.65
2017-09-20T13:22:03.791Z,3.67
2017-09-20T13:24:31.340Z,4.00
2017-09-20T13:26:58.882Z,3.80
2017-09-20T13:29:26.438Z,4.00
2017-09-20T13:31:53.978Z,5.45
2017-09-20T13:34:22.407Z,3.25
2017-09-20T13:36:49.944Z,5.35
2017-09-20T13:39:18.225Z,4.00
2017-09-20T13:41:46.504Z,3.35
2017-09-20T13:44:14.024Z,3.62
2017-09-20T13:46:41.558Z,3.25
2017-09-20T13:49:09.059Z,4.62
2017-09-20T13:51:36.559Z,4.40
2017-09-20T13:54:04.044Z,3.97
2017-09-20T13:56:31.611Z,3.90
2017-09-20T13:58:59.116Z,5.25
2017-09-20T14:01:26.621Z,5.00
2017-09-20T14:03:54.188Z,3.92
2017-09-20T14:06:21.687Z,4.70
2017-09-20T14:08:49.252Z,4.18
2017-09-20T14:11:16.772Z,5.35
2017-09-20T14:13:44.308Z,3.90
2017-09-20T14:16:11.825Z,4.53
2017-09-20T14:18:39.337Z,4.07
2017-09-20T14:21:06.834Z,3.97
2017-09-20T14:23:34.348Z,4.07
2017-09-20T14:26:01.868Z,4.18
2017-09-20T14:28:29.408Z,4.82
2017-09-20T14:30:57.684Z,4.00
2017-09-20T14:33:25.215Z,4.10
2017-09-20T14:35:52.738Z,4.30
2017-09-20T14:38:20.248Z,4.75
2017-09-20T14:40:48.546Z,3.67
2017-09-20T14:43:16.092Z,3.47
2017-09-20T14:45:43.657Z,4.62
2017-09-20T14:48:13.117Z,3.95
2017-09-20T14:50:40.665Z,6.18
2017-09-20T14:53:08.191Z,6.07
2017-09-20T14:55:35.723Z,5.05
2017-09-20T14:58:03.235Z,4.50
2017-09-20T15:00:30.760Z,5.40
2017-09-20T15:02:58.260Z,6.80
2017-09-20T15:05:25.780Z,5.20
2017-09-20T15:07:53.332Z,6.80
2017-09-20T15:10:20.899Z,5.30
2017-09-20T15:12:48.630Z,5.75
2017-09-20T15:15:16.157Z,5.32
2017-09-20T15:17:43.672Z,7.03
2017-09-20T15:20:11.226Z,5.03
2017-09-20T15:22:38.785Z,6.30
2017-09-20T15:25:06.307Z,6.57
2017-09-20T15:27:33.816Z,5.85
2017-09-20T15:30:01.362Z,6.35
2017-09-20T15:32:28.892Z,7.35
2017-09-20T15:34:56.402Z,5.75
2017-09-20T15:37:23.907Z,5.50
2017-09-20T15:39:51.439Z,6.25
2017-09-20T15:42:18.955Z,7.22
2017-09-20T15:44:46.473Z,6.97
2017-09-20T15:47:14.034Z,6.28
2017-09-20T15:49:41.523Z,6.87
2017-09-20T15:52:09.139Z,7.80
2017-09-20T15:54:36.633Z,9.88
2017-09-20T15:57:04.145Z,9.45
2017-09-20T15:59:31.649Z,8.05
2017-09-20T16:01:59.164Z,6.55
2017-09-20T16:04:31.583Z,6.85
2017-09-20T16:06:59.894Z,7.55
2017-09-20T16:09:27.490Z,6.40
2017-09-20T16:11:55.022Z,5.62
2017-09-20T16:14:22.529Z,6.37
2017-09-20T16:16:50.116Z,7.60
2017-09-20T16:19:17.617Z,7.50
2017-09-20T16:21:45.111Z,7.35
2017-09-20T16:24:13.486Z,6.95
2017-09-20T16:26:41.302Z,7.68
2017-09-20T16:29:08.884Z,8.10
2017-09-20T16:31:36.395Z,8.45
2017-09-20T16:34:03.952Z,8.00
2017-09-20T16:36:31.504Z,6.75
2017-09-20T16:38:59.046Z,7.75
2017-09-20T16:41:26.767Z,6.85
2017-09-20T16:43:54.343Z,6.47
2017-09-20T16:46:21.932Z,6.90
2017-09-20T16:48:50.775Z,7.75
2017-09-20T16:51:18.305Z,8.55
2017-09-20T16:53:46.453Z,8.02
2017-09-20T16:56:14.746Z,8.35
2017-09-20T16:58:42.407Z,14.30
2017-09-20T17:01:10.081Z,9.52
2017-09-20T17:03:37.645Z,11.38
2017-09-20T17:06:05.268Z,7.90
2017-09-20T17:08:32.857Z,8.98
2017-09-20T17:11:01.220Z,9.25
2017-09-20T17:13:28.771Z,8.73
2017-09-20T17:15:56.397Z,9.07
2017-09-20T17:18:24.024Z,8.35
2017-09-20T17:20:51.615Z,8.10
2017-09-20T17:23:19.637Z,8.90
2017-09-20T17:25:47.770Z,9.13
2017-09-20T17:28:15.630Z,8.98
2017-09-20T17:30:43.208Z,9.40
2017-09-20T17:33:12.009Z,8.75
2017-09-20T17:35:39.763Z,9.82
2017-09-20T17:38:07.677Z,10.00
2017-09-20T17:40:35.275Z,9.38
2017-09-20T17:43:04.718Z,9.57
2017-09-20T17:45:32.767Z,10.80
2017-09-20T17:48:00.530Z,10.20
2017-09-20T17:50:28.471Z,10.15
2017-09-20T17:52:56.153Z,10.63
2017-09-20T17:55:23.836Z,8.68
2017-09-20T17:57:51.476Z,9.70
2017-09-20T18:00:19.060Z,9.32
2017-09-20T18:02:46.686Z,8.75
2017-09-20T18:05:14.337Z,8.05
2017-09-20T18:07:41.899Z,8.35
2017-09-20T18:10:09.480Z,8.43
2017-09-20T18:12:37.019Z,11.15
2017-09-20T18:15:04.674Z,11.10
2017-09-20T18:17:33.235Z,9.18
2017-09-20T18:20:00.775Z,9.52
2017-09-20T18:22:28.405Z,11.10
2017-09-20T18:24:56.197Z,9.98
2017-09-20T18:27:23.787Z,10.02
2017-09-20T18:29:51.369Z,9.68
2017-09-20T18:32:18.867Z,9.32
2017-09-20T18:34:47.191Z,9.05
2017-09-20T18:37:14.707Z,9.27
2017-09-20T18:39:42.299Z,10.65
2017-09-20T18:42:09.833Z,11.32
2017-09-20T18:44:37.369Z,12.13
2017-09-20T18:47:04.903Z,12.18
2017-09-20T18:49:32.467Z,11.77
2017-09-20T18:52:00.146Z,12.52
2017-09-20T18:54:27.992Z,13.13
2017-09-20T18:56:55.953Z,12.65
2017-09-20T18:59:23.516Z,14.35
2017-09-20T19:01:51.041Z,11.73
2017-09-20T19:04:18.639Z,14.15
2017-09-20T19:06:46.359Z,14.40
2017-09-20T19:09:13.883Z,15.13
2017-09-20T19:11:41.562Z,16.27
2017-09-20T19:14:09.172Z,15.98
2017-09-20T19:16:36.742Z,15.05
2017-09-20T19:19:04.397Z,17.05
2017-09-20T19:21:31.964Z,15.27
2017-09-20T19:23:59.472Z,16.83
2017-09-20T19:26:27.189Z,14.85
2017-09-20T19:28:54.859Z,21.45
2017-09-20T19:31:22.507Z,18.87
2017-09-20T19:33:50.100Z,17.33
2017-09-20T19:36:17.720Z,17.25
2017-09-20T19:38:45.512Z,17.90
2017-09-20T19:41:13.253Z,17.70
2017-09-20T19:43:40.825Z,18.37
2017-09-20T19:46:08.807Z,18.27
2017-09-20T19:48:36.370Z,17.33
2017-09-20T19:51:03.907Z,18.08
2017-09-20T19:53:31.509Z,19.25
2017-09-20T19:55:59.355Z,19.05
2017-09-20T19:58:26.884Z,19.08
2017-09-20T20:00:54.428Z,18.20
2017-09-20T20:03:21.984Z,21.17
2017-09-20T20:05:49.490Z,18.80
2017-09-20T20:08:17.764Z,18.10
2017-09-20T20:10:45.308Z,19.73
2017-09-20T20:13:13.660Z,20.20
2017-09-20T20:15:41.679Z,20.20
2017-09-20T20:18:09.287Z,20.02
2017-09-20T20:20:36.835Z,20.48
2017-09-20T20:23:04.412Z,18.95
2017-09-20T20:25:31.928Z,19.15
2017-09-20T20:27:59.496Z,19.98
2017-09-20T20:30:26.992Z,24.90
2017-09-20T20:32:54.542Z,21.35
2017-09-20T20:35:22.129Z,23.87
2017-09-20T20:37:50.595Z,21.55
2017-09-20T20:40:18.158Z,22.25
2017-09-20T20:42:45.765Z,22.20
2017-09-20T20:45:13.395Z,22.87
2017-09-20T20:47:41.125Z,22.27
2017-09-20T20:50:08.733Z,20.45
2017-09-20T20:52:36.441Z,22.65
2017-09-20T20:55:04.250Z,22.45
2017-09-20T20:57:32.739Z,22.73
2017-09-20T21:00:00.283Z,20.83
2017-09-20T21:02:27.867Z,21.42
2017-09-20T21:04:55.493Z,18.75
2017-09-20T21:07:23.044Z,23.90
2017-09-20T21:09:50.646Z,20.80
2017-09-20T21:12:18.277Z,22.27
2017-09-20T21:14:46.687Z,22.52
2017-09-20T21:17:14.206Z,21.40
2017-09-20T21:19:41.704Z,21.92
2017-09-20T21:22:09.309Z,21.45
2017-09-20T21:24:36.823Z,21.15
2017-09-20T21:27:04.340Z,21.17
2017-09-20T21:29:31.851Z,21.60
2017-09-20T21:31:59.387Z,23.12
2017-09-20T21:34:27.664Z,20.20
2017-09-20T21:36:55.212Z,25.62
2017-09-20T21:39:22.761Z,23.45
2017-09-20T21:41:50.292Z,21.80
2017-09-20T21:44:17.786Z,22.75
2017-09-20T21:46:45.328Z,23.50
2017-09-20T21:49:12.826Z,23.90
2017-09-20T21:51:40.318Z,23.85
2017-09-20T21:54:07.825Z,26.73
2017-09-20T21:56:35.384Z,24.70
2017-09-20T21:59:02.909Z,25.65
2017-09-20T22:01:30.404Z,24.58
2017-09-20T22:03:57.908Z,29.90
2017-09-20T22:06:25.396Z,30.25
2017-09-20T22:08:52.878Z,28.70
2017-09-20T22:11:20.402Z,27.05
2017-09-20T22:13:47.905Z,28.58
2017-09-20T22:16:27.098Z,28.35
2017-09-20T22:19:06.409Z,27.65
2017-09-20T22:21:45.462Z,28.80
2017-09-20T22:24:24.769Z,26.48
2017-09-20T22:26:51.781Z,29.65
2017-09-20T22:29:19.391Z,28.02
2017-09-20T22:31:46.885Z,28.23
2017-09-20T22:34:14.403Z,26.42
2017-09-20T22:36:41.892Z,27.25
2017-09-20T22:39:09.432Z,28.40
2017-09-20T22:41:36.971Z,28.02
2017-09-20T22:44:04.526Z,28.50
2017-09-20T22:46:32.085Z,26.75
2017-09-20T22:48:59.705Z,31.37
2017-09-20T22:51:27.216Z,30.48
2017-09-20T22:53:54.724Z,29.90
2017-09-20T22:56:22.289Z,30.77
2017-09-20T22:58:49.812Z,31.08
2017-09-20T23:01:17.309Z,30.35
2017-09-20T23:03:44.799Z,31.50
2017-09-20T23:06:12.300Z,31.98
2017-09-20T23:08:39.813Z,32.05
2017-09-20T23:11:07.320Z,32.88
2017-09-20T23:13:34.824Z,36.00
2017-09-20T23:16:02.335Z,32.90
2017-09-20T23:18:29.843Z,32.15
2017-09-20T23:20:57.359Z,33.75
2017-09-20T23:23:24.852Z,32.92
2017-09-20T23:25:52.354Z,30.65
2017-09-20T23:28:20.605Z,31.40
2017-09-20T23:30:48.085Z,31.10
2017-09-20T23:33:15.579Z,32.33
2017-09-20T23:35:43.085Z,31.48
2017-09-20T23:38:10.575Z,33.95
2017-09-20T23:40:38.065Z,31.12
2017-09-20T23:43:05.552Z,33.38
2017-09-20T23:45:33.043Z,32.53
2017-09-20T23:48:00.527Z,31.05
2017-09-20T23:50:28.008Z,34.13
2017-09-20T23:52:55.512Z,32.22
2017-09-20T23:55:23.751Z,33.00
2017-09-20T23:57:51.241Z,31.45
